Magic Sun — D54895U — position and weather

sailwx.info

Track history (hours):
 
Tides and Currents Weather Stations Pressure Air Temp Water Temp Dewpoint Dewpoint Depression Visibility Wind Speed Wind Dir Waves Ship Positions

Magic Sun

Last reported at 2015-Apr-06 13:31 UTC. Time now 2015-Apr-18 16:46 UTC.
Position N 49°29' E 000°06'.
Warning: this ship's position is 12 days out of date.

Length 10 m.

Type: Sailing vessel. MMSI: 227018810.

Date/timePositionNaut miles runAvg speedWind from/ knotsBaromVisibWave heightAir tempDewpointWater temp
2015-Apr-06 13:31N 49°29' E 000°06'0 0.0
2015-Apr-05 22:28N 49°29' E 000°06'0 0.4
2015-Apr-05 21:33N 49°29' E 000°05'4 4.2
2015-Apr-05 20:33N 49°27' E 000°00'6 6.5
2015-Apr-05 19:33N 49°28' W 000°10'6 6.3
2015-Apr-05 18:33N 49°30' W 000°19'  
2015-Apr-01 09:33N 48°29' W 004°50'5 4.9
2015-Apr-01 08:33N 48°24' W 004°49'3 3.3
2015-Apr-01 07:33N 48°21' W 004°48'1 0.0
2015-Mar-31 12:33N 48°22' W 004°48'5 4.5
2015-Mar-31 11:33N 48°17' W 004°46'7 7.0
2015-Mar-31 10:33N 48°10' W 004°46'8 7.7
2015-Mar-31 09:33N 48°03' W 004°47'56 2.2
2015-Mar-30 08:16N 47°40' W 003°31'3 3.7
2015-Mar-30 07:33N 47°40' W 003°27'4 4.1
2015-Mar-30 06:33N 47°43' W 003°22'1 0.9
2015-Mar-30 05:33N 47°44' W 003°22'0 0.0
2015-Mar-29 22:12N 47°44' W 003°22'0 0.0
2015-Mar-29 21:33N 47°44' W 003°22'0 0.0
2015-Mar-29 20:30N 47°44' W 003°22'0 0.0
2015-Mar-29 19:33N 47°44' W 003°22'0 0.0
2015-Mar-29 18:33N 47°44' W 003°22'0 0.0
2015-Mar-29 17:33N 47°44' W 003°22'0 0.0
2015-Mar-29 16:33N 47°44' W 003°22'0 0.0
2015-Mar-29 15:33N 47°44' W 003°22'0 0.0
2015-Mar-29 14:33N 47°44' W 003°22'0 0.0
2015-Mar-29 13:33N 47°44' W 003°22'0 0.0
2015-Mar-29 12:30N 47°44' W 003°22'0 0.0
2015-Mar-29 11:33N 47°44' W 003°22'0 0.0
2015-Mar-28 22:33N 47°44' W 003°22'0 0.0
2015-Mar-28 21:30N 47°44' W 003°22'0 0.0
2015-Mar-28 20:33N 47°44' W 003°22'0 0.0
2015-Mar-28 19:33N 47°44' W 003°22'0 0.0
2015-Mar-28 18:30N 47°44' W 003°22'0 0.0
2015-Mar-28 15:30N 47°44' W 003°22'0 0.0
2015-Mar-28 14:30N 47°44' W 003°22'0 0.0
2015-Mar-28 13:33N 47°44' W 003°22'0 0.0
2015-Mar-28 12:33N 47°44' W 003°22'  
Track history (hours):
 
Tides and Currents Weather Stations Pressure Air Temp Water Temp Dewpoint Dewpoint Depression Visibility Wind Speed Wind Dir Waves Ship Positions

Magic Sun

Last reported at 2015-Apr-06 13:31 UTC. Time now 2015-Apr-18 16:47 UTC.
Position N 49°29' E 000°06'.
Warning: this ship's position is 12 days out of date.

Length 10 m.

Type: Sailing vessel. MMSI: 227018810.

Date/timePositionNaut miles runAvg speedWind from/ knotsBaromVisibWave heightAir tempDewpointWater temp
2015-Apr-06 13:31N 49°29' E 000°06'0 0.0
2015-Apr-05 22:28N 49°29' E 000°06'0 0.4
2015-Apr-05 21:33N 49°29' E 000°05'4 4.2
2015-Apr-05 20:33N 49°27' E 000°00'6 6.5
2015-Apr-05 19:33N 49°28' W 000°10'6 6.3
2015-Apr-05 18:33N 49°30' W 000°19'  
2015-Apr-01 09:33N 48°29' W 004°50'5 4.9
2015-Apr-01 08:33N 48°24' W 004°49'3 3.3
2015-Apr-01 07:33N 48°21' W 004°48'1 0.0
2015-Mar-31 12:33N 48°22' W 004°48'5 4.5
2015-Mar-31 11:33N 48°17' W 004°46'7 7.0
2015-Mar-31 10:33N 48°10' W 004°46'8 7.7
2015-Mar-31 09:33N 48°03' W 004°47'56 2.2
2015-Mar-30 08:16N 47°40' W 003°31'3 3.7
2015-Mar-30 07:33N 47°40' W 003°27'4 4.1
2015-Mar-30 06:33N 47°43' W 003°22'1 0.9
2015-Mar-30 05:33N 47°44' W 003°22'0 0.0
2015-Mar-29 22:12N 47°44' W 003°22'0 0.0
2015-Mar-29 21:33N 47°44' W 003°22'0 0.0
2015-Mar-29 20:30N 47°44' W 003°22'0 0.0
2015-Mar-29 19:33N 47°44' W 003°22'0 0.0
2015-Mar-29 18:33N 47°44' W 003°22'0 0.0
2015-Mar-29 17:33N 47°44' W 003°22'0 0.0
2015-Mar-29 16:33N 47°44' W 003°22'0 0.0
2015-Mar-29 15:33N 47°44' W 003°22'0 0.0
2015-Mar-29 14:33N 47°44' W 003°22'0 0.0
2015-Mar-29 13:33N 47°44' W 003°22'0 0.0
2015-Mar-29 12:30N 47°44' W 003°22'0 0.0
2015-Mar-29 11:33N 47°44' W 003°22'0 0.0
2015-Mar-28 22:33N 47°44' W 003°22'0 0.0
2015-Mar-28 21:30N 47°44' W 003°22'0 0.0
2015-Mar-28 20:33N 47°44' W 003°22'0 0.0
2015-Mar-28 19:33N 47°44' W 003°22'0 0.0
2015-Mar-28 18:30N 47°44' W 003°22'0 0.0
2015-Mar-28 15:30N 47°44' W 003°22'0 0.0
2015-Mar-28 14:30N 47°44' W 003°22'0 0.0
2015-Mar-28 13:33N 47°44' W 003°22'0 0.0
2015-Mar-28 12:33N 47°44' W 003°22'  

Dump ship's entire track history